sensor_id;sensor_type;location;lat;lon;timestamp;P1;durP1;ratioP1;P2;durP2;ratioP2
4182;SDS011;2105;52.300;9.182;2023-07-02T00:01:46;8.37;;;7.50;;
4182;SDS011;2105;52.300;9.182;2023-07-02T00:04:13;10.10;;;7.77;;
4182;SDS011;2105;52.300;9.182;2023-07-02T00:06:41;9.47;;;7.50;;
4182;SDS011;2105;52.300;9.182;2023-07-02T00:09:08;11.87;;;7.67;;
4182;SDS011;2105;52.300;9.182;2023-07-02T00:11:36;11.20;;;8.30;;
4182;SDS011;2105;52.300;9.182;2023-07-02T00:14:05;9.00;;;7.90;;
4182;SDS011;2105;52.300;9.182;2023-07-02T00:16:32;8.50;;;7.70;;
4182;SDS011;2105;52.300;9.182;2023-07-02T00:18:59;8.90;;;8.00;;
4182;SDS011;2105;52.300;9.182;2023-07-02T00:21:25;14.23;;;8.90;;
4182;SDS011;2105;52.300;9.182;2023-07-02T00:23:53;13.40;;;8.90;;
4182;SDS011;2105;52.300;9.182;2023-07-02T00:26:22;9.03;;;8.20;;
4182;SDS011;2105;52.300;9.182;2023-07-02T00:28:49;8.80;;;8.00;;
4182;SDS011;2105;52.300;9.182;2023-07-02T00:31:17;8.87;;;7.97;;
4182;SDS011;2105;52.300;9.182;2023-07-02T00:33:44;11.10;;;8.70;;
4182;SDS011;2105;52.300;9.182;2023-07-02T00:36:10;8.60;;;7.80;;
4182;SDS011;2105;52.300;9.182;2023-07-02T00:38:40;11.50;;;7.67;;
4182;SDS011;2105;52.300;9.182;2023-07-02T00:41:07;14.57;;;8.10;;
4182;SDS011;2105;52.300;9.182;2023-07-02T00:43:33;11.90;;;8.00;;
4182;SDS011;2105;52.300;9.182;2023-07-02T00:46:00;13.30;;;8.00;;
4182;SDS011;2105;52.300;9.182;2023-07-02T00:48:29;12.27;;;7.83;;
4182;SDS011;2105;52.300;9.182;2023-07-02T00:50:55;14.03;;;8.97;;
4182;SDS011;2105;52.300;9.182;2023-07-02T00:53:22;12.50;;;7.60;;
4182;SDS011;2105;52.300;9.182;2023-07-02T00:55:49;9.20;;;8.03;;
4182;SDS011;2105;52.300;9.182;2023-07-02T00:58:16;17.63;;;7.57;;
4182;SDS011;2105;52.300;9.182;2023-07-02T01:00:46;10.60;;;7.87;;
4182;SDS011;2105;52.300;9.182;2023-07-02T01:03:12;12.80;;;7.90;;
4182;SDS011;2105;52.300;9.182;2023-07-02T01:05:40;12.20;;;7.53;;
4182;SDS011;2105;52.300;9.182;2023-07-02T01:08:07;9.47;;;8.50;;
4182;SDS011;2105;52.300;9.182;2023-07-02T01:10:35;9.20;;;8.30;;
4182;SDS011;2105;52.300;9.182;2023-07-02T01:13:03;14.43;;;8.77;;
4182;SDS011;2105;52.300;9.182;2023-07-02T01:15:35;16.30;;;8.70;;
4182;SDS011;2105;52.300;9.182;2023-07-02T01:18:03;15.83;;;8.00;;
4182;SDS011;2105;52.300;9.182;2023-07-02T01:20:32;13.93;;;8.37;;
4182;SDS011;2105;52.300;9.182;2023-07-02T01:23:00;9.93;;;8.93;;
4182;SDS011;2105;52.300;9.182;2023-07-02T01:25:28;14.43;;;9.13;;
4182;SDS011;2105;52.300;9.182;2023-07-02T01:27:55;12.20;;;9.40;;
4182;SDS011;2105;52.300;9.182;2023-07-02T01:30:23;14.60;;;8.63;;
4182;SDS011;2105;52.300;9.182;2023-07-02T01:32:50;15.80;;;9.03;;
4182;SDS011;2105;52.300;9.182;2023-07-02T01:35:17;10.73;;;9.73;;
4182;SDS011;2105;52.300;9.182;2023-07-02T01:37:45;16.93;;;9.63;;
4182;SDS011;2105;52.300;9.182;2023-07-02T01:40:12;14.73;;;10.77;;
4182;SDS011;2105;52.300;9.182;2023-07-02T01:42:39;12.40;;;9.90;;
4182;SDS011;2105;52.300;9.182;2023-07-02T01:45:06;17.37;;;10.97;;
4182;SDS011;2105;52.300;9.182;2023-07-02T01:47:33;11.67;;;10.50;;
4182;SDS011;2105;52.300;9.182;2023-07-02T01:50:00;17.70;;;10.60;;
4182;SDS011;2105;52.300;9.182;2023-07-02T01:52:28;11.87;;;10.20;;
4182;SDS011;2105;52.300;9.182;2023-07-02T01:54:59;11.67;;;10.57;;
4182;SDS011;2105;52.300;9.182;2023-07-02T01:57:26;12.77;;;10.20;;
4182;SDS011;2105;52.300;9.182;2023-07-02T01:59:55;13.80;;;11.00;;
4182;SDS011;2105;52.300;9.182;2023-07-02T02:02:22;15.83;;;10.83;;
4182;SDS011;2105;52.300;9.182;2023-07-02T02:04:48;15.00;;;10.27;;
4182;SDS011;2105;52.300;9.182;2023-07-02T02:07:15;16.47;;;11.60;;
4182;SDS011;2105;52.300;9.182;2023-07-02T02:09:42;12.20;;;11.00;;
4182;SDS011;2105;52.300;9.182;2023-07-02T02:12:10;12.63;;;11.33;;
4182;SDS011;2105;52.300;9.182;2023-07-02T02:14:39;19.03;;;12.60;;
4182;SDS011;2105;52.300;9.182;2023-07-02T02:17:05;13.33;;;10.40;;
4182;SDS011;2105;52.300;9.182;2023-07-02T02:19:32;13.10;;;11.40;;
4182;SDS011;2105;52.300;9.182;2023-07-02T02:21:59;12.50;;;11.20;;
4182;SDS011;2105;52.300;9.182;2023-07-02T02:24:25;12.10;;;10.80;;
4182;SDS011;2105;52.300;9.182;2023-07-02T02:26:52;13.70;;;10.60;;
4182;SDS011;2105;52.300;9.182;2023-07-02T02:29:20;11.27;;;10.17;;
4182;SDS011;2105;52.300;9.182;2023-07-02T02:31:47;12.60;;;10.53;;
4182;SDS011;2105;52.300;9.182;2023-07-02T02:34:13;18.27;;;10.97;;
4182;SDS011;2105;52.300;9.182;2023-07-02T02:36:40;12.87;;;9.53;;
4182;SDS011;2105;52.300;9.182;2023-07-02T02:39:07;13.37;;;10.50;;
4182;SDS011;2105;52.300;9.182;2023-07-02T02:41:33;12.63;;;9.97;;
4182;SDS011;2105;52.300;9.182;2023-07-02T02:44:00;13.70;;;10.50;;
4182;SDS011;2105;52.300;9.182;2023-07-02T02:46:28;12.60;;;11.30;;
4182;SDS011;2105;52.300;9.182;2023-07-02T02:48:55;14.77;;;10.73;;
4182;SDS011;2105;52.300;9.182;2023-07-02T02:51:21;15.27;;;11.20;;
4182;SDS011;2105;52.300;9.182;2023-07-02T02:53:48;11.50;;;10.33;;
4182;SDS011;2105;52.300;9.182;2023-07-02T02:56:15;11.90;;;10.43;;
4182;SDS011;2105;52.300;9.182;2023-07-02T02:58:42;19.50;;;10.60;;
4182;SDS011;2105;52.300;9.182;2023-07-02T03:01:09;11.20;;;10.10;;
4182;SDS011;2105;52.300;9.182;2023-07-02T03:03:38;18.83;;;11.43;;
4182;SDS011;2105;52.300;9.182;2023-07-02T03:06:10;17.77;;;11.30;;
4182;SDS011;2105;52.300;9.182;2023-07-02T03:08:37;14.90;;;10.67;;
4182;SDS011;2105;52.300;9.182;2023-07-02T03:11:05;11.87;;;10.63;;
4182;SDS011;2105;52.300;9.182;2023-07-02T03:13:32;13.43;;;10.97;;
4182;SDS011;2105;52.300;9.182;2023-07-02T03:15:58;21.50;;;11.03;;
4182;SDS011;2105;52.300;9.182;2023-07-02T03:18:25;17.93;;;12.40;;
4182;SDS011;2105;52.300;9.182;2023-07-02T03:20:53;14.63;;;12.30;;
4182;SDS011;2105;52.300;9.182;2023-07-02T03:23:20;15.87;;;13.03;;
4182;SDS011;2105;52.300;9.182;2023-07-02T03:25:47;17.10;;;13.47;;
4182;SDS011;2105;52.300;9.182;2023-07-02T03:28:14;15.90;;;13.90;;
4182;SDS011;2105;52.300;9.182;2023-07-02T03:30:41;14.83;;;13.30;;
4182;SDS011;2105;52.300;9.182;2023-07-02T03:33:08;20.07;;;14.10;;
4182;SDS011;2105;52.300;9.182;2023-07-02T03:35:35;24.43;;;13.50;;
4182;SDS011;2105;52.300;9.182;2023-07-02T03:38:03;18.30;;;9.40;;
4182;SDS011;2105;52.300;9.182;2023-07-02T03:40:30;17.97;;;11.00;;
4182;SDS011;2105;52.300;9.182;2023-07-02T03:42:56;20.00;;;10.90;;
4182;SDS011;2105;52.300;9.182;2023-07-02T03:45:23;17.73;;;10.90;;
4182;SDS011;2105;52.300;9.182;2023-07-02T03:47:50;19.70;;;10.50;;
4182;SDS011;2105;52.300;9.182;2023-07-02T03:50:17;20.50;;;10.33;;
4182;SDS011;2105;52.300;9.182;2023-07-02T03:52:44;21.13;;;9.93;;
4182;SDS011;2105;52.300;9.182;2023-07-02T03:55:12;17.87;;;11.27;;
4182;SDS011;2105;52.300;9.182;2023-07-02T03:57:39;21.73;;;10.83;;
4182;SDS011;2105;52.300;9.182;2023-07-02T04:00:06;22.10;;;10.43;;
4182;SDS011;2105;52.300;9.182;2023-07-02T04:02:34;22.37;;;10.60;;
4182;SDS011;2105;52.300;9.182;2023-07-02T04:05:01;22.37;;;10.70;;
4182;SDS011;2105;52.300;9.182;2023-07-02T04:07:28;18.87;;;11.07;;
4182;SDS011;2105;52.300;9.182;2023-07-02T04:09:55;15.37;;;11.57;;
4182;SDS011;2105;52.300;9.182;2023-07-02T04:12:23;18.57;;;11.10;;
4182;SDS011;2105;52.300;9.182;2023-07-02T04:14:50;17.03;;;11.43;;
4182;SDS011;2105;52.300;9.182;2023-07-02T04:17:17;17.70;;;11.53;;
4182;SDS011;2105;52.300;9.182;2023-07-02T04:19:43;19.70;;;11.50;;
4182;SDS011;2105;52.300;9.182;2023-07-02T04:22:10;24.77;;;11.03;;
4182;SDS011;2105;52.300;9.182;2023-07-02T04:24:37;19.50;;;11.80;;
4182;SDS011;2105;52.300;9.182;2023-07-02T04:27:04;17.13;;;11.07;;
4182;SDS011;2105;52.300;9.182;2023-07-02T04:29:32;22.83;;;12.07;;
4182;SDS011;2105;52.300;9.182;2023-07-02T04:31:59;15.70;;;10.43;;
4182;SDS011;2105;52.300;9.182;2023-07-02T04:34:26;18.57;;;10.57;;
4182;SDS011;2105;52.300;9.182;2023-07-02T04:36:52;21.77;;;11.53;;
4182;SDS011;2105;52.300;9.182;2023-07-02T04:39:19;24.30;;;11.60;;
4182;SDS011;2105;52.300;9.182;2023-07-02T04:41:46;20.17;;;10.93;;
4182;SDS011;2105;52.300;9.182;2023-07-02T04:44:17;21.00;;;10.30;;
4182;SDS011;2105;52.300;9.182;2023-07-02T04:46:47;18.57;;;10.53;;
4182;SDS011;2105;52.300;9.182;2023-07-02T04:49:13;21.67;;;10.53;;
4182;SDS011;2105;52.300;9.182;2023-07-02T04:51:40;23.87;;;11.20;;
4182;SDS011;2105;52.300;9.182;2023-07-02T04:54:07;26.30;;;11.17;;
4182;SDS011;2105;52.300;9.182;2023-07-02T04:56:34;17.13;;;10.57;;
4182;SDS011;2105;52.300;9.182;2023-07-02T04:59:00;22.33;;;11.13;;
4182;SDS011;2105;52.300;9.182;2023-07-02T05:01:27;23.43;;;10.70;;
4182;SDS011;2105;52.300;9.182;2023-07-02T05:03:55;18.27;;;10.37;;
4182;SDS011;2105;52.300;9.182;2023-07-02T05:06:22;18.33;;;11.07;;
4182;SDS011;2105;52.300;9.182;2023-07-02T05:08:48;21.23;;;11.03;;
4182;SDS011;2105;52.300;9.182;2023-07-02T05:11:15;18.00;;;10.90;;
4182;SDS011;2105;52.300;9.182;2023-07-02T05:13:42;20.53;;;10.03;;
4182;SDS011;2105;52.300;9.182;2023-07-02T05:16:08;20.83;;;10.17;;
4182;SDS011;2105;52.300;9.182;2023-07-02T05:18:35;19.33;;;10.30;;
4182;SDS011;2105;52.300;9.182;2023-07-02T05:21:03;22.67;;;10.97;;
4182;SDS011;2105;52.300;9.182;2023-07-02T05:23:30;24.57;;;11.13;;
4182;SDS011;2105;52.300;9.182;2023-07-02T05:25:57;20.23;;;11.30;;
4182;SDS011;2105;52.300;9.182;2023-07-02T05:28:24;16.00;;;10.60;;
4182;SDS011;2105;52.300;9.182;2023-07-02T05:30:50;16.87;;;10.77;;
4182;SDS011;2105;52.300;9.182;2023-07-02T05:33:17;19.40;;;11.50;;
4182;SDS011;2105;52.300;9.182;2023-07-02T05:35:44;24.63;;;11.77;;
4182;SDS011;2105;52.300;9.182;2023-07-02T05:38:12;16.50;;;10.90;;
4182;SDS011;2105;52.300;9.182;2023-07-02T05:40:39;25.70;;;12.80;;
4182;SDS011;2105;52.300;9.182;2023-07-02T05:43:06;27.40;;;11.20;;
4182;SDS011;2105;52.300;9.182;2023-07-02T05:45:33;22.80;;;12.57;;
4182;SDS011;2105;52.300;9.182;2023-07-02T05:47:59;19.07;;;11.13;;
4182;SDS011;2105;52.300;9.182;2023-07-02T05:50:26;19.13;;;11.20;;
4182;SDS011;2105;52.300;9.182;2023-07-02T05:52:53;20.60;;;11.33;;
4182;SDS011;2105;52.300;9.182;2023-07-02T05:55:21;23.20;;;11.77;;
4182;SDS011;2105;52.300;9.182;2023-07-02T05:57:48;20.20;;;12.23;;
4182;SDS011;2105;52.300;9.182;2023-07-02T06:00:15;19.50;;;11.83;;
4182;SDS011;2105;52.300;9.182;2023-07-02T06:02:46;16.03;;;12.30;;
4182;SDS011;2105;52.300;9.182;2023-07-02T06:05:13;18.93;;;12.30;;
4182;SDS011;2105;52.300;9.182;2023-07-02T06:07:40;24.30;;;12.50;;
4182;SDS011;2105;52.300;9.182;2023-07-02T06:10:06;17.37;;;12.50;;
4182;SDS011;2105;52.300;9.182;2023-07-02T06:12:35;18.60;;;12.73;;
4182;SDS011;2105;52.300;9.182;2023-07-02T06:15:02;24.30;;;12.80;;
4182;SDS011;2105;52.300;9.182;2023-07-02T06:17:29;20.07;;;12.83;;
4182;SDS011;2105;52.300;9.182;2023-07-02T06:19:56;15.93;;;12.00;;
4182;SDS011;2105;52.300;9.182;2023-07-02T06:22:23;24.90;;;12.87;;
4182;SDS011;2105;52.300;9.182;2023-07-02T06:24:50;20.50;;;12.77;;
4182;SDS011;2105;52.300;9.182;2023-07-02T06:27:16;24.50;;;12.83;;
4182;SDS011;2105;52.300;9.182;2023-07-02T06:29:45;22.17;;;13.90;;
4182;SDS011;2105;52.300;9.182;2023-07-02T06:32:11;22.33;;;13.43;;
4182;SDS011;2105;52.300;9.182;2023-07-02T06:34:38;22.07;;;13.87;;
4182;SDS011;2105;52.300;9.182;2023-07-02T06:37:05;23.13;;;15.03;;
4182;SDS011;2105;52.300;9.182;2023-07-02T06:39:32;22.97;;;14.00;;
4182;SDS011;2105;52.300;9.182;2023-07-02T06:41:58;24.40;;;15.57;;
4182;SDS011;2105;52.300;9.182;2023-07-02T06:44:25;34.70;;;16.83;;
4182;SDS011;2105;52.300;9.182;2023-07-02T06:46:53;24.47;;;16.67;;
4182;SDS011;2105;52.300;9.182;2023-07-02T06:49:20;30.83;;;15.40;;
4182;SDS011;2105;52.300;9.182;2023-07-02T06:51:47;27.13;;;16.57;;
4182;SDS011;2105;52.300;9.182;2023-07-02T06:54:14;26.80;;;17.53;;
4182;SDS011;2105;52.300;9.182;2023-07-02T06:56:40;34.53;;;18.03;;
4182;SDS011;2105;52.300;9.182;2023-07-02T06:59:07;29.43;;;17.80;;
4182;SDS011;2105;52.300;9.182;2023-07-02T07:01:34;31.00;;;18.00;;
4182;SDS011;2105;52.300;9.182;2023-07-02T07:04:03;33.77;;;18.20;;
4182;SDS011;2105;52.300;9.182;2023-07-02T07:06:29;33.03;;;17.13;;
4182;SDS011;2105;52.300;9.182;2023-07-02T07:08:56;25.63;;;17.37;;
4182;SDS011;2105;52.300;9.182;2023-07-02T07:11:23;38.70;;;18.13;;
4182;SDS011;2105;52.300;9.182;2023-07-02T07:13:49;26.87;;;17.53;;
4182;SDS011;2105;52.300;9.182;2023-07-02T07:16:16;33.10;;;17.87;;
4182;SDS011;2105;52.300;9.182;2023-07-02T07:18:43;33.77;;;19.50;;
4182;SDS011;2105;52.300;9.182;2023-07-02T07:21:11;28.57;;;19.17;;
4182;SDS011;2105;52.300;9.182;2023-07-02T07:23:38;28.40;;;17.80;;
4182;SDS011;2105;52.300;9.182;2023-07-02T07:26:05;30.13;;;19.00;;
4182;SDS011;2105;52.300;9.182;2023-07-02T07:28:32;25.33;;;16.77;;
4182;SDS011;2105;52.300;9.182;2023-07-02T07:30:59;30.60;;;19.63;;
4182;SDS011;2105;52.300;9.182;2023-07-02T07:33:26;24.20;;;17.83;;
4182;SDS011;2105;52.300;9.182;2023-07-02T07:35:52;32.10;;;20.37;;
4182;SDS011;2105;52.300;9.182;2023-07-02T07:38:21;28.57;;;19.50;;
4182;SDS011;2105;52.300;9.182;2023-07-02T07:40:47;30.13;;;20.53;;
4182;SDS011;2105;52.300;9.182;2023-07-02T07:43:14;32.00;;;19.33;;
4182;SDS011;2105;52.300;9.182;2023-07-02T07:45:41;34.53;;;20.77;;
4182;SDS011;2105;52.300;9.182;2023-07-02T07:48:07;26.97;;;20.63;;
4182;SDS011;2105;52.300;9.182;2023-07-02T07:50:34;28.50;;;20.03;;
4182;SDS011;2105;52.300;9.182;2023-07-02T07:53:00;25.90;;;20.90;;
4182;SDS011;2105;52.300;9.182;2023-07-02T07:55:29;23.07;;;17.50;;
4182;SDS011;2105;52.300;9.182;2023-07-02T07:57:56;28.27;;;20.30;;
4182;SDS011;2105;52.300;9.182;2023-07-02T08:00:22;25.87;;;18.90;;
4182;SDS011;2105;52.300;9.182;2023-07-02T08:02:50;32.23;;;19.80;;
4182;SDS011;2105;52.300;9.182;2023-07-02T08:05:20;30.50;;;20.10;;
4182;SDS011;2105;52.300;9.182;2023-07-02T08:07:47;28.47;;;20.83;;
4182;SDS011;2105;52.300;9.182;2023-07-02T08:10:14;31.83;;;19.17;;
4182;SDS011;2105;52.300;9.182;2023-07-02T08:12:42;31.17;;;22.00;;
4182;SDS011;2105;52.300;9.182;2023-07-02T08:15:09;30.30;;;22.10;;
4182;SDS011;2105;52.300;9.182;2023-07-02T08:17:35;27.03;;;19.33;;
4182;SDS011;2105;52.300;9.182;2023-07-02T08:20:02;30.07;;;19.60;;
4182;SDS011;2105;52.300;9.182;2023-07-02T08:22:34;30.33;;;19.47;;
4182;SDS011;2105;52.300;9.182;2023-07-02T08:25:01;31.37;;;20.30;;
4182;SDS011;2105;52.300;9.182;2023-07-02T08:27:27;34.63;;;19.50;;
4182;SDS011;2105;52.300;9.182;2023-07-02T08:29:55;32.07;;;18.80;;
4182;SDS011;2105;52.300;9.182;2023-07-02T08:32:22;33.10;;;20.33;;
4182;SDS011;2105;52.300;9.182;2023-07-02T08:34:49;27.07;;;19.70;;
4182;SDS011;2105;52.300;9.182;2023-07-02T08:37:16;31.63;;;19.63;;
4182;SDS011;2105;52.300;9.182;2023-07-02T08:39:43;30.00;;;18.90;;
4182;SDS011;2105;52.300;9.182;2023-07-02T08:42:10;37.33;;;21.77;;
4182;SDS011;2105;52.300;9.182;2023-07-02T08:44:36;34.80;;;23.17;;
4182;SDS011;2105;52.300;9.182;2023-07-02T08:47:05;33.03;;;21.20;;
4182;SDS011;2105;52.300;9.182;2023-07-02T08:49:32;24.67;;;19.57;;
4182;SDS011;2105;52.300;9.182;2023-07-02T08:51:59;30.53;;;20.63;;
4182;SDS011;2105;52.300;9.182;2023-07-02T08:54:26;28.40;;;20.87;;
4182;SDS011;2105;52.300;9.182;2023-07-02T08:56:52;26.87;;;20.97;;
4182;SDS011;2105;52.300;9.182;2023-07-02T08:59:19;28.57;;;21.47;;
4182;SDS011;2105;52.300;9.182;2023-07-02T09:01:46;29.33;;;22.90;;
4182;SDS011;2105;52.300;9.182;2023-07-02T09:04:18;26.80;;;21.73;;
4182;SDS011;2105;52.300;9.182;2023-07-02T09:06:46;33.63;;;22.30;;
4182;SDS011;2105;52.300;9.182;2023-07-02T09:09:13;32.03;;;23.70;;
4182;SDS011;2105;52.300;9.182;2023-07-02T09:11:46;31.73;;;22.70;;
4182;SDS011;2105;52.300;9.182;2023-07-02T09:14:23;27.70;;;23.67;;
4182;SDS011;2105;52.300;9.182;2023-07-02T09:17:00;32.33;;;23.60;;
4182;SDS011;2105;52.300;9.182;2023-07-02T09:19:29;25.50;;;21.90;;
4182;SDS011;2105;52.300;9.182;2023-07-02T09:21:57;30.07;;;21.57;;
4182;SDS011;2105;52.300;9.182;2023-07-02T09:24:26;32.27;;;22.10;;
4182;SDS011;2105;52.300;9.182;2023-07-02T09:26:54;25.47;;;21.27;;
4182;SDS011;2105;52.300;9.182;2023-07-02T09:29:22;23.77;;;21.27;;
4182;SDS011;2105;52.300;9.182;2023-07-02T09:31:50;25.10;;;20.73;;
4182;SDS011;2105;52.300;9.182;2023-07-02T09:34:17;32.00;;;21.60;;
4182;SDS011;2105;52.300;9.182;2023-07-02T09:36:45;27.77;;;21.63;;
4182;SDS011;2105;52.300;9.182;2023-07-02T09:39:12;25.43;;;21.07;;
4182;SDS011;2105;52.300;9.182;2023-07-02T09:41:40;32.60;;;20.53;;
4182;SDS011;2105;52.300;9.182;2023-07-02T09:44:07;38.07;;;21.20;;
4182;SDS011;2105;52.300;9.182;2023-07-02T09:46:36;28.50;;;22.13;;
4182;SDS011;2105;52.300;9.182;2023-07-02T09:49:06;26.90;;;22.80;;
4182;SDS011;2105;52.300;9.182;2023-07-02T09:51:38;25.47;;;22.57;;
4182;SDS011;2105;52.300;9.182;2023-07-02T09:54:06;25.20;;;20.80;;
4182;SDS011;2105;52.300;9.182;2023-07-02T09:56:33;28.13;;;20.13;;
4182;SDS011;2105;52.300;9.182;2023-07-02T09:59:00;33.23;;;20.73;;
4182;SDS011;2105;52.300;9.182;2023-07-02T10:01:26;22.90;;;20.30;;
4182;SDS011;2105;52.300;9.182;2023-07-02T10:03:53;24.30;;;21.20;;
4182;SDS011;2105;52.300;9.182;2023-07-02T10:06:20;29.57;;;20.60;;
4182;SDS011;2105;52.300;9.182;2023-07-02T10:08:53;32.63;;;22.10;;
4182;SDS011;2105;52.300;9.182;2023-07-02T10:11:27;23.67;;;21.33;;
4182;SDS011;2105;52.300;9.182;2023-07-02T10:14:00;31.77;;;21.90;;
4182;SDS011;2105;52.300;9.182;2023-07-02T10:16:26;23.40;;;20.90;;
4182;SDS011;2105;52.300;9.182;2023-07-02T10:19:07;28.20;;;21.10;;
4182;SDS011;2105;52.300;9.182;2023-07-02T10:21:34;36.33;;;22.40;;
4182;SDS011;2105;52.300;9.182;2023-07-02T10:24:08;31.83;;;21.27;;
4182;SDS011;2105;52.300;9.182;2023-07-02T10:26:37;26.90;;;21.67;;
4182;SDS011;2105;52.300;9.182;2023-07-02T10:29:05;24.07;;;21.63;;
4182;SDS011;2105;52.300;9.182;2023-07-02T10:31:32;28.30;;;22.53;;
4182;SDS011;2105;52.300;9.182;2023-07-02T10:33:59;30.33;;;22.77;;
4182;SDS011;2105;52.300;9.182;2023-07-02T10:36:26;24.93;;;21.10;;
4182;SDS011;2105;52.300;9.182;2023-07-02T10:38:52;26.00;;;21.20;;
4182;SDS011;2105;52.300;9.182;2023-07-02T10:41:23;26.87;;;20.90;;
4182;SDS011;2105;52.300;9.182;2023-07-02T10:43:52;28.77;;;20.90;;
4182;SDS011;2105;52.300;9.182;2023-07-02T10:46:19;25.47;;;21.10;;
4182;SDS011;2105;52.300;9.182;2023-07-02T10:48:53;23.33;;;20.67;;
4182;SDS011;2105;52.300;9.182;2023-07-02T10:51:20;27.87;;;21.73;;
4182;SDS011;2105;52.300;9.182;2023-07-02T10:53:56;23.63;;;20.70;;
4182;SDS011;2105;52.300;9.182;2023-07-02T10:56:23;27.90;;;20.47;;
4182;SDS011;2105;52.300;9.182;2023-07-02T10:58:52;24.87;;;20.47;;
4182;SDS011;2105;52.300;9.182;2023-07-02T11:01:22;23.73;;;20.93;;
4182;SDS011;2105;52.300;9.182;2023-07-02T11:03:56;26.60;;;21.37;;
4182;SDS011;2105;52.300;9.182;2023-07-02T11:06:24;24.70;;;21.53;;
4182;SDS011;2105;52.300;9.182;2023-07-02T11:08:51;24.00;;;21.37;;
4182;SDS011;2105;52.300;9.182;2023-07-02T11:11:20;24.77;;;22.10;;
4182;SDS011;2105;52.300;9.182;2023-07-02T11:13:48;32.70;;;21.53;;
4182;SDS011;2105;52.300;9.182;2023-07-02T11:16:21;25.63;;;20.80;;
4182;SDS011;2105;52.300;9.182;2023-07-02T11:18:51;27.53;;;22.17;;
4182;SDS011;2105;52.300;9.182;2023-07-02T11:21:18;23.83;;;21.33;;
4182;SDS011;2105;52.300;9.182;2023-07-02T11:23:45;22.97;;;20.10;;
4182;SDS011;2105;52.300;9.182;2023-07-02T11:26:12;27.20;;;20.53;;
4182;SDS011;2105;52.300;9.182;2023-07-02T11:28:47;24.40;;;19.70;;
4182;SDS011;2105;52.300;9.182;2023-07-02T11:31:14;24.80;;;20.40;;
4182;SDS011;2105;52.300;9.182;2023-07-02T11:33:52;24.53;;;20.50;;
4182;SDS011;2105;52.300;9.182;2023-07-02T11:36:20;23.67;;;21.03;;
4182;SDS011;2105;52.300;9.182;2023-07-02T11:38:48;25.40;;;20.70;;
4182;SDS011;2105;52.300;9.182;2023-07-02T11:41:15;26.10;;;20.23;;
4182;SDS011;2105;52.300;9.182;2023-07-02T11:43:42;22.70;;;20.20;;
4182;SDS011;2105;52.300;9.182;2023-07-02T11:46:09;26.77;;;20.23;;
4182;SDS011;2105;52.300;9.182;2023-07-02T11:48:37;23.93;;;20.80;;
4182;SDS011;2105;52.300;9.182;2023-07-02T11:51:04;23.47;;;19.53;;
4182;SDS011;2105;52.300;9.182;2023-07-02T11:53:30;23.90;;;20.73;;
4182;SDS011;2105;52.300;9.182;2023-07-02T11:55:57;26.90;;;20.70;;
4182;SDS011;2105;52.300;9.182;2023-07-02T11:58:24;23.50;;;20.03;;
4182;SDS011;2105;52.300;9.182;2023-07-02T12:00:51;31.30;;;20.87;;
4182;SDS011;2105;52.300;9.182;2023-07-02T12:03:17;25.27;;;20.40;;
4182;SDS011;2105;52.300;9.182;2023-07-02T12:05:45;24.70;;;19.97;;
4182;SDS011;2105;52.300;9.182;2023-07-02T12:08:12;24.20;;;21.60;;
4182;SDS011;2105;52.300;9.182;2023-07-02T12:10:39;23.10;;;20.70;;
4182;SDS011;2105;52.300;9.182;2023-07-02T12:13:06;29.33;;;20.27;;
4182;SDS011;2105;52.300;9.182;2023-07-02T12:15:33;22.03;;;19.40;;
4182;SDS011;2105;52.300;9.182;2023-07-02T12:18:00;37.67;;;30.10;;
4182;SDS011;2105;52.300;9.182;2023-07-02T12:20:26;22.30;;;19.97;;
4182;SDS011;2105;52.300;9.182;2023-07-02T12:22:54;21.80;;;19.60;;
4182;SDS011;2105;52.300;9.182;2023-07-02T12:25:21;23.73;;;20.90;;
4182;SDS011;2105;52.300;9.182;2023-07-02T12:27:48;24.00;;;20.80;;
4182;SDS011;2105;52.300;9.182;2023-07-02T12:30:15;23.27;;;20.10;;
4182;SDS011;2105;52.300;9.182;2023-07-02T12:32:42;24.27;;;20.40;;
4182;SDS011;2105;52.300;9.182;2023-07-02T12:35:09;23.70;;;20.13;;
4182;SDS011;2105;52.300;9.182;2023-07-02T12:37:42;26.17;;;20.50;;
4182;SDS011;2105;52.300;9.182;2023-07-02T12:40:11;27.60;;;21.40;;
4182;SDS011;2105;52.300;9.182;2023-07-02T12:42:38;23.57;;;20.80;;
4182;SDS011;2105;52.300;9.182;2023-07-02T12:45:07;24.33;;;20.53;;
4182;SDS011;2105;52.300;9.182;2023-07-02T12:47:34;25.47;;;21.60;;
4182;SDS011;2105;52.300;9.182;2023-07-02T12:50:01;27.20;;;21.03;;
4182;SDS011;2105;52.300;9.182;2023-07-02T12:52:28;28.90;;;20.90;;
4182;SDS011;2105;52.300;9.182;2023-07-02T12:54:55;24.00;;;21.40;;
4182;SDS011;2105;52.300;9.182;2023-07-02T12:57:23;28.80;;;21.57;;
4182;SDS011;2105;52.300;9.182;2023-07-02T12:59:51;24.00;;;21.53;;
4182;SDS011;2105;52.300;9.182;2023-07-02T13:02:18;24.67;;;20.40;;
4182;SDS011;2105;52.300;9.182;2023-07-02T13:04:44;23.13;;;20.77;;
4182;SDS011;2105;52.300;9.182;2023-07-02T13:07:11;25.03;;;20.90;;
4182;SDS011;2105;52.300;9.182;2023-07-02T13:09:38;23.20;;;20.80;;
4182;SDS011;2105;52.300;9.182;2023-07-02T13:12:05;23.53;;;20.77;;
4182;SDS011;2105;52.300;9.182;2023-07-02T13:14:34;23.97;;;21.20;;
4182;SDS011;2105;52.300;9.182;2023-07-02T13:17:01;28.43;;;20.53;;
4182;SDS011;2105;52.300;9.182;2023-07-02T13:19:30;23.33;;;20.83;;
4182;SDS011;2105;52.300;9.182;2023-07-02T13:21:57;23.43;;;20.70;;
4182;SDS011;2105;52.300;9.182;2023-07-02T13:24:24;24.40;;;22.00;;
4182;SDS011;2105;52.300;9.182;2023-07-02T13:26:50;24.77;;;20.23;;
4182;SDS011;2105;52.300;9.182;2023-07-02T13:29:17;23.07;;;20.87;;
4182;SDS011;2105;52.300;9.182;2023-07-02T13:31:45;23.50;;;21.10;;
4182;SDS011;2105;52.300;9.182;2023-07-02T13:34:12;28.17;;;20.37;;
4182;SDS011;2105;52.300;9.182;2023-07-02T13:36:39;22.17;;;19.77;;
4182;SDS011;2105;52.300;9.182;2023-07-02T13:39:06;22.37;;;20.17;;
4182;SDS011;2105;52.300;9.182;2023-07-02T13:41:32;21.97;;;19.70;;
4182;SDS011;2105;52.300;9.182;2023-07-02T13:44:00;22.60;;;20.10;;
4182;SDS011;2105;52.300;9.182;2023-07-02T13:46:26;22.60;;;20.13;;
4182;SDS011;2105;52.300;9.182;2023-07-02T13:48:54;23.10;;;20.80;;
4182;SDS011;2105;52.300;9.182;2023-07-02T13:51:21;22.50;;;20.10;;
4182;SDS011;2105;52.300;9.182;2023-07-02T13:53:48;28.90;;;19.80;;
4182;SDS011;2105;52.300;9.182;2023-07-02T13:56:15;23.30;;;21.00;;
4182;SDS011;2105;52.300;9.182;2023-07-02T14:03:57;23.23;;;20.80;;
4182;SDS011;2105;52.300;9.182;2023-07-02T14:06:24;24.80;;;21.00;;
4182;SDS011;2105;52.300;9.182;2023-07-02T14:08:51;24.00;;;21.70;;
4182;SDS011;2105;52.300;9.182;2023-07-02T14:11:18;23.77;;;21.27;;
4182;SDS011;2105;52.300;9.182;2023-07-02T14:16:28;23.13;;;20.83;;
4182;SDS011;2105;52.300;9.182;2023-07-02T14:18:54;22.27;;;20.27;;
4182;SDS011;2105;52.300;9.182;2023-07-02T14:21:21;24.77;;;22.17;;
4182;SDS011;2105;52.300;9.182;2023-07-02T14:23:48;24.10;;;21.73;;
4182;SDS011;2105;52.300;9.182;2023-07-02T14:26:14;24.40;;;21.70;;
4182;SDS011;2105;52.300;9.182;2023-07-02T14:28:41;24.07;;;20.77;;
4182;SDS011;2105;52.300;9.182;2023-07-02T14:31:08;30.47;;;21.43;;
4182;SDS011;2105;52.300;9.182;2023-07-02T14:33:37;22.70;;;20.60;;
4182;SDS011;2105;52.300;9.182;2023-07-02T14:36:04;23.00;;;20.80;;
4182;SDS011;2105;52.300;9.182;2023-07-02T14:38:31;22.50;;;20.40;;
4182;SDS011;2105;52.300;9.182;2023-07-02T14:40:59;22.53;;;20.23;;
4182;SDS011;2105;52.300;9.182;2023-07-02T14:43:27;21.63;;;19.53;;
4182;SDS011;2105;52.300;9.182;2023-07-02T14:45:56;22.37;;;20.30;;
4182;SDS011;2105;52.300;9.182;2023-07-02T14:48:25;22.20;;;19.90;;
4182;SDS011;2105;52.300;9.182;2023-07-02T14:50:54;22.23;;;20.13;;
4182;SDS011;2105;52.300;9.182;2023-07-02T14:53:22;22.43;;;20.23;;
4182;SDS011;2105;52.300;9.182;2023-07-02T14:55:50;22.30;;;20.30;;
4182;SDS011;2105;52.300;9.182;2023-07-02T14:58:19;22.47;;;20.33;;
4182;SDS011;2105;52.300;9.182;2023-07-02T15:00:46;22.03;;;19.90;;